TAM4736 SBSP-SBBR
Flight info
| Callsign | TAM4736 |
|---|---|
| Flight time | 1h 11m |
| Altitude | 34000 |
| Route | GERTU UZ25 PABIN |
| Aircraft | A319/M-SDE3FGHIRWY/LB1 |
Departure
| Time | 2026-05-05 23:34 |
|---|---|
| Airport | Congonhas–Deputado Freitas Nobre Airport (SBSP) |
Arrival
| Time | 2026-05-06 00:46 |
|---|---|
| Airport | Presidente Juscelino Kubitschek International Airport (SBBR) |
| Time | Latitude | Longitude | Altitude | Speed | Heading |
|---|---|---|---|---|---|
| 2026-05-05 23:07 | -23.62482 | -46.65988 | 2601 ft | 0 kts | 237° |
| 2026-05-05 23:28 | -23.62479 | -46.65984 | 2600 ft | 3 kts | 237° |
| 2026-05-05 23:28 | -23.62466 | -46.65959 | 2600 ft | 4 kts | 255° |
| 2026-05-05 23:28 | -23.62467 | -46.65941 | 2601 ft | 2 kts | 327° |
| 2026-05-05 23:29 | -23.62480 | -46.65932 | 2601 ft | 0 kts | 327° |
| 2026-05-05 23:32 | -23.62472 | -46.65937 | 2601 ft | 5 kts | 328° |
| 2026-05-05 23:32 | -23.62410 | -46.65951 | 2601 ft | 13 kts | 355° |
| 2026-05-05 23:32 | -23.62311 | -46.65999 | 2600 ft | 19 kts | 328° |
| 2026-05-05 23:32 | -23.62212 | -46.66059 | 2599 ft | 13 kts | 328° |
| 2026-05-05 23:33 | -23.62139 | -46.66109 | 2599 ft | 13 kts | 328° |
| 2026-05-05 23:33 | -23.62063 | -46.66139 | 2592 ft | 11 kts | 11° |
| 2026-05-05 23:33 | -23.62050 | -46.66073 | 2591 ft | 9 kts | 140° |
| 2026-05-05 23:33 | -23.62069 | -46.66061 | 2594 ft | 0 kts | 149° |
| 2026-05-05 23:34 | -23.62270 | -46.65923 | 2600 ft | 78 kts | 147° |
| 2026-05-05 23:34 | -23.62946 | -46.65453 | 2612 ft | 150 kts | 147° |
| 2026-05-05 23:34 | -23.63914 | -46.64783 | 3062 ft | 167 kts | 147° |
| 2026-05-05 23:34 | -23.64891 | -46.64114 | 3598 ft | 170 kts | 146° |
| 2026-05-05 23:35 | -23.65957 | -46.63427 | 3838 ft | 189 kts | 157° |
| 2026-05-05 23:35 | -23.67341 | -46.63314 | 4099 ft | 213 kts | 186° |
| 2026-05-05 23:35 | -23.68909 | -46.63611 | 4360 ft | 243 kts | 189° |
| 2026-05-05 23:35 | -23.70645 | -46.64007 | 4822 ft | 266 kts | 190° |
| 2026-05-05 23:36 | -23.72485 | -46.64404 | 5620 ft | 273 kts | 189° |
| 2026-05-05 23:36 | -23.74354 | -46.64841 | 6518 ft | 278 kts | 198° |
| 2026-05-05 23:36 | -23.75948 | -46.66051 | 7198 ft | 287 kts | 229° |
| 2026-05-05 23:36 | -23.76810 | -46.68002 | 7428 ft | 289 kts | 255° |
| 2026-05-05 23:37 | -23.77341 | -46.70114 | 7485 ft | 288 kts | 250° |
| 2026-05-05 23:37 | -23.78174 | -46.72093 | 7488 ft | 287 kts | 241° |
| 2026-05-05 23:37 | -23.79140 | -46.73962 | 7481 ft | 287 kts | 238° |
| 2026-05-05 23:37 | -23.80043 | -46.75933 | 7965 ft | 295 kts | 253° |
| 2026-05-05 23:38 | -23.80220 | -46.78153 | 8916 ft | 296 kts | 277° |
| 2026-05-05 23:38 | -23.79576 | -46.80278 | 9778 ft | 298 kts | 300° |
| 2026-05-05 23:38 | -23.78481 | -46.82220 | 10557 ft | 305 kts | 303° |
| 2026-05-05 23:38 | -23.77311 | -46.84251 | 10878 ft | 325 kts | 303° |
| 2026-05-05 23:39 | -23.76090 | -46.86367 | 11466 ft | 333 kts | 302° |
| 2026-05-05 23:39 | -23.74849 | -46.88522 | 12121 ft | 338 kts | 302° |
| 2026-05-05 23:39 | -23.73593 | -46.90706 | 12816 ft | 342 kts | 302° |
| 2026-05-05 23:39 | -23.72328 | -46.92919 | 13505 ft | 346 kts | 301° |
| 2026-05-05 23:40 | -23.71053 | -46.95159 | 14177 ft | 349 kts | 301° |
| 2026-05-05 23:40 | -23.69769 | -46.97418 | 14782 ft | 352 kts | 301° |
| 2026-05-05 23:40 | -23.68474 | -46.99692 | 15378 ft | 355 kts | 301° |
| 2026-05-05 23:40 | -23.67163 | -47.01987 | 15952 ft | 358 kts | 301° |
| 2026-05-05 23:41 | -23.65838 | -47.04299 | 16527 ft | 361 kts | 301° |
| 2026-05-05 23:41 | -23.64499 | -47.06627 | 17093 ft | 364 kts | 301° |
| 2026-05-05 23:41 | -23.63148 | -47.08978 | 17658 ft | 367 kts | 301° |
| 2026-05-05 23:41 | -23.61787 | -47.11347 | 18215 ft | 370 kts | 301° |
| 2026-05-05 23:42 | -23.60218 | -47.13592 | 18716 ft | 375 kts | 313° |
| 2026-05-05 23:42 | -23.58203 | -47.15410 | 19183 ft | 380 kts | 326° |
| 2026-05-05 23:42 | -23.55816 | -47.16694 | 19673 ft | 385 kts | 340° |
| 2026-05-05 23:42 | -23.53213 | -47.17400 | 20161 ft | 388 kts | 348° |
| 2026-05-05 23:43 | -23.50550 | -47.17977 | 20661 ft | 391 kts | 348° |
| 2026-05-05 23:43 | -23.47868 | -47.18557 | 21118 ft | 395 kts | 347° |
| 2026-05-05 23:43 | -23.45198 | -47.19137 | 21587 ft | 398 kts | 347° |
| 2026-05-05 23:43 | -23.42470 | -47.19734 | 22075 ft | 401 kts | 347° |
| 2026-05-05 23:44 | -23.39727 | -47.20338 | 22563 ft | 404 kts | 347° |
| 2026-05-05 23:44 | -23.36966 | -47.20944 | 23048 ft | 407 kts | 347° |
| 2026-05-05 23:44 | -23.34175 | -47.21555 | 23540 ft | 410 kts | 347° |
| 2026-05-05 23:44 | -23.31366 | -47.22169 | 23988 ft | 413 kts | 346° |
| 2026-05-05 23:45 | -23.28537 | -47.22786 | 24394 ft | 416 kts | 346° |
| 2026-05-05 23:45 | -23.25688 | -47.23408 | 24796 ft | 420 kts | 346° |
| 2026-05-05 23:45 | -23.22813 | -47.24038 | 25199 ft | 423 kts | 346° |
| 2026-05-05 23:45 | -23.19919 | -47.24673 | 25619 ft | 426 kts | 346° |
| 2026-05-05 23:46 | -23.17003 | -47.25309 | 26019 ft | 429 kts | 346° |
| 2026-05-05 23:46 | -23.14067 | -47.25948 | 26411 ft | 432 kts | 346° |
| 2026-05-05 23:46 | -23.11108 | -47.26579 | 26794 ft | 436 kts | 347° |
| 2026-05-05 23:46 | -23.08104 | -47.27106 | 27178 ft | 439 kts | 349° |
| 2026-05-05 23:47 | -23.05058 | -47.27530 | 27538 ft | 443 kts | 351° |
| 2026-05-05 23:47 | -23.01977 | -47.27891 | 27892 ft | 447 kts | 351° |
| 2026-05-05 23:47 | -22.98879 | -47.28234 | 28247 ft | 450 kts | 351° |
| 2026-05-05 23:47 | -22.95754 | -47.28592 | 28599 ft | 453 kts | 351° |
| 2026-05-05 23:48 | -22.92618 | -47.28975 | 28951 ft | 455 kts | 350° |
| 2026-05-05 23:48 | -22.89462 | -47.29383 | 29304 ft | 458 kts | 350° |
| 2026-05-05 23:48 | -22.86284 | -47.29806 | 29651 ft | 461 kts | 350° |
| 2026-05-05 23:48 | -22.83088 | -47.30238 | 29992 ft | 464 kts | 350° |
| 2026-05-05 23:49 | -22.79873 | -47.30673 | 30325 ft | 467 kts | 350° |
| 2026-05-05 23:49 | -22.76639 | -47.31106 | 30615 ft | 470 kts | 349° |
| 2026-05-05 23:49 | -22.73383 | -47.31537 | 30916 ft | 472 kts | 349° |
| 2026-05-05 23:49 | -22.70113 | -47.31968 | 31216 ft | 474 kts | 349° |
| 2026-05-05 23:50 | -22.66828 | -47.32399 | 31518 ft | 476 kts | 349° |
| 2026-05-05 23:50 | -22.63537 | -47.32831 | 31880 ft | 476 kts | 349° |
| 2026-05-05 23:50 | -22.60253 | -47.33266 | 32307 ft | 475 kts | 349° |
| 2026-05-05 23:50 | -22.56971 | -47.33705 | 32729 ft | 474 kts | 349° |
| 2026-05-05 23:51 | -22.53698 | -47.34144 | 33142 ft | 474 kts | 348° |
| 2026-05-05 23:51 | -22.50433 | -47.34584 | 33575 ft | 473 kts | 348° |
| 2026-05-05 23:51 | -22.47172 | -47.35024 | 33998 ft | 472 kts | 348° |
| 2026-05-05 23:51 | -22.43909 | -47.35463 | 34149 ft | 471 kts | 348° |
| 2026-05-05 23:52 | -22.37450 | -47.36331 | 34176 ft | 474 kts | 348° |
| 2026-05-05 23:52 | -22.30831 | -47.37225 | 34190 ft | 491 kts | 348° |
| 2026-05-05 23:53 | -22.25094 | -47.37991 | 34189 ft | 499 kts | 348° |
| 2026-05-05 23:53 | -22.17062 | -47.39048 | 34209 ft | 501 kts | 348° |
| 2026-05-05 23:54 | -22.10130 | -47.39962 | 34205 ft | 502 kts | 348° |
| 2026-05-05 23:54 | -22.03187 | -47.40889 | 34224 ft | 503 kts | 348° |
| 2026-05-05 23:55 | -21.97417 | -47.41655 | 34214 ft | 503 kts | 348° |
| 2026-05-05 23:55 | -21.90477 | -47.42577 | 34198 ft | 502 kts | 348° |
| 2026-05-05 23:56 | -21.83533 | -47.43497 | 34188 ft | 503 kts | 348° |
| 2026-05-05 23:56 | -21.76581 | -47.44420 | 34155 ft | 504 kts | 348° |
| 2026-05-05 23:57 | -21.69619 | -47.45342 | 34161 ft | 504 kts | 348° |
| 2026-05-05 23:57 | -21.62655 | -47.46267 | 34161 ft | 504 kts | 348° |
| 2026-05-05 23:58 | -21.55684 | -47.47187 | 34166 ft | 505 kts | 348° |
| 2026-05-05 23:58 | -21.48716 | -47.48099 | 34165 ft | 505 kts | 348° |
| 2026-05-05 23:59 | -21.41745 | -47.49017 | 34160 ft | 505 kts | 348° |
| 2026-05-05 23:59 | -21.34769 | -47.49937 | 34162 ft | 505 kts | 348° |
| 2026-05-06 00:00 | -21.27786 | -47.50861 | 34167 ft | 506 kts | 348° |
| 2026-05-06 00:00 | -21.20803 | -47.51777 | 34162 ft | 506 kts | 348° |
| 2026-05-06 00:01 | -21.13800 | -47.52693 | 34178 ft | 507 kts | 348° |
| 2026-05-06 00:01 | -21.06791 | -47.53618 | 34167 ft | 508 kts | 348° |
| 2026-05-06 00:02 | -20.99774 | -47.54537 | 34169 ft | 509 kts | 348° |
| 2026-05-06 00:02 | -20.92743 | -47.55457 | 34153 ft | 509 kts | 348° |
| 2026-05-06 00:03 | -20.85711 | -47.56379 | 34162 ft | 510 kts | 348° |
| 2026-05-06 00:03 | -20.78669 | -47.57300 | 34172 ft | 510 kts | 348° |
| 2026-05-06 00:04 | -20.71621 | -47.58222 | 34162 ft | 511 kts | 348° |
| 2026-05-06 00:04 | -20.64601 | -47.59135 | 34166 ft | 512 kts | 348° |
| 2026-05-06 00:05 | -20.53966 | -47.60521 | 34172 ft | 514 kts | 348° |
| 2026-05-06 00:06 | -20.46867 | -47.61443 | 34170 ft | 515 kts | 348° |
| 2026-05-06 00:06 | -20.39749 | -47.62369 | 34173 ft | 516 kts | 348° |
| 2026-05-06 00:07 | -20.32624 | -47.63292 | 34176 ft | 516 kts | 348° |
| 2026-05-06 00:07 | -20.25492 | -47.64221 | 34155 ft | 516 kts | 348° |
| 2026-05-06 00:08 | -20.18348 | -47.65150 | 34153 ft | 517 kts | 348° |
| 2026-05-06 00:08 | -20.11194 | -47.66077 | 34156 ft | 518 kts | 348° |
| 2026-05-06 00:09 | -20.04031 | -47.67001 | 34163 ft | 519 kts | 348° |
| 2026-05-06 00:09 | -19.96861 | -47.67935 | 34158 ft | 520 kts | 348° |
| 2026-05-06 00:10 | -19.89683 | -47.68865 | 34168 ft | 520 kts | 348° |
| 2026-05-06 00:10 | -19.82486 | -47.69788 | 34172 ft | 521 kts | 348° |
| 2026-05-06 00:11 | -19.75328 | -47.70703 | 34165 ft | 522 kts | 348° |
| 2026-05-06 00:11 | -19.68115 | -47.71632 | 34171 ft | 523 kts | 348° |
| 2026-05-06 00:12 | -19.60884 | -47.72568 | 34172 ft | 523 kts | 348° |
| 2026-05-06 00:12 | -19.53653 | -47.73500 | 34162 ft | 524 kts | 348° |
| 2026-05-06 00:13 | -19.46411 | -47.74428 | 34169 ft | 525 kts | 348° |
| 2026-05-06 00:13 | -19.39152 | -47.75353 | 34174 ft | 526 kts | 348° |
| 2026-05-06 00:14 | -19.31883 | -47.76285 | 34181 ft | 526 kts | 348° |
| 2026-05-06 00:14 | -19.24612 | -47.77221 | 34183 ft | 527 kts | 348° |
| 2026-05-06 00:15 | -19.17337 | -47.78154 | 34185 ft | 527 kts | 348° |
| 2026-05-06 00:15 | -19.10056 | -47.79090 | 34186 ft | 527 kts | 348° |
| 2026-05-06 00:16 | -19.02830 | -47.80013 | 34178 ft | 527 kts | 348° |
| 2026-05-06 00:16 | -18.95543 | -47.80938 | 34170 ft | 527 kts | 348° |
| 2026-05-06 00:17 | -18.88257 | -47.81863 | 34173 ft | 528 kts | 348° |
| 2026-05-06 00:17 | -18.80966 | -47.82801 | 34164 ft | 528 kts | 348° |
| 2026-05-06 00:18 | -18.73666 | -47.83733 | 34167 ft | 528 kts | 349° |
| 2026-05-06 00:18 | -18.66366 | -47.84657 | 34165 ft | 529 kts | 349° |
| 2026-05-06 00:19 | -18.59055 | -47.85587 | 34168 ft | 529 kts | 348° |
| 2026-05-06 00:19 | -18.51749 | -47.86521 | 34159 ft | 529 kts | 349° |
| 2026-05-06 00:20 | -18.44433 | -47.87452 | 34157 ft | 530 kts | 349° |
| 2026-05-06 00:20 | -18.37110 | -47.88375 | 34158 ft | 530 kts | 349° |
| 2026-05-06 00:21 | -18.29788 | -47.89300 | 34151 ft | 530 kts | 349° |
| 2026-05-06 00:21 | -18.22461 | -47.90226 | 34154 ft | 530 kts | 349° |
| 2026-05-06 00:22 | -18.15181 | -47.91149 | 34157 ft | 530 kts | 349° |
| 2026-05-06 00:22 | -18.07857 | -47.92079 | 34153 ft | 530 kts | 349° |
| 2026-05-06 00:23 | -18.00532 | -47.93007 | 34153 ft | 530 kts | 349° |
| 2026-05-06 00:23 | -17.93205 | -47.93933 | 34169 ft | 530 kts | 349° |
| 2026-05-06 00:24 | -17.85878 | -47.94849 | 34167 ft | 530 kts | 349° |
| 2026-05-06 00:24 | -17.78551 | -47.95769 | 34170 ft | 530 kts | 349° |
| 2026-05-06 00:25 | -17.71233 | -47.96695 | 34157 ft | 530 kts | 349° |
| 2026-05-06 00:25 | -17.63918 | -47.97616 | 34161 ft | 529 kts | 349° |
| 2026-05-06 00:26 | -17.56605 | -47.98533 | 34147 ft | 529 kts | 349° |
| 2026-05-06 00:26 | -17.49291 | -47.99449 | 34159 ft | 529 kts | 349° |
| 2026-05-06 00:27 | -17.41988 | -48.00363 | 34165 ft | 525 kts | 349° |
| 2026-05-06 00:27 | -17.38394 | -48.00804 | 34050 ft | 518 kts | 349° |
| 2026-05-06 00:27 | -17.34788 | -48.01253 | 32928 ft | 529 kts | 349° |
| 2026-05-06 00:27 | -17.31095 | -48.01721 | 31982 ft | 537 kts | 349° |
| 2026-05-06 00:28 | -17.27414 | -48.02182 | 31617 ft | 529 kts | 349° |
| 2026-05-06 00:28 | -17.23778 | -48.02638 | 31092 ft | 524 kts | 349° |
| 2026-05-06 00:28 | -17.20165 | -48.03092 | 30493 ft | 522 kts | 349° |
| 2026-05-06 00:28 | -17.16572 | -48.03544 | 29823 ft | 519 kts | 349° |
| 2026-05-06 00:29 | -17.13003 | -48.03990 | 29173 ft | 514 kts | 350° |
| 2026-05-06 00:29 | -17.09507 | -48.04425 | 28436 ft | 512 kts | 350° |
| 2026-05-06 00:29 | -17.05971 | -48.04867 | 27669 ft | 510 kts | 351° |
| 2026-05-06 00:29 | -17.02461 | -48.05307 | 27026 ft | 506 kts | 351° |
| 2026-05-06 00:30 | -16.98980 | -48.05741 | 26424 ft | 502 kts | 351° |
| 2026-05-06 00:30 | -16.95524 | -48.06168 | 25846 ft | 497 kts | 351° |
| 2026-05-06 00:30 | -16.92085 | -48.06594 | 24966 ft | 499 kts | 352° |
| 2026-05-06 00:30 | -16.88647 | -48.07024 | 24283 ft | 496 kts | 352° |
| 2026-05-06 00:31 | -16.85232 | -48.07452 | 23656 ft | 492 kts | 352° |
| 2026-05-06 00:31 | -16.81849 | -48.07876 | 22961 ft | 487 kts | 352° |
| 2026-05-06 00:31 | -16.78516 | -48.08293 | 22584 ft | 476 kts | 352° |
| 2026-05-06 00:31 | -16.75294 | -48.08918 | 22067 ft | 468 kts | 347° |
| 2026-05-06 00:32 | -16.72143 | -48.09631 | 21372 ft | 460 kts | 347° |
| 2026-05-06 00:32 | -16.69038 | -48.10335 | 20563 ft | 454 kts | 347° |
| 2026-05-06 00:32 | -16.65970 | -48.11033 | 19783 ft | 448 kts | 347° |
| 2026-05-06 00:32 | -16.62925 | -48.11632 | 19028 ft | 443 kts | 353° |
| 2026-05-06 00:33 | -16.59883 | -48.11975 | 18276 ft | 437 kts | 354° |
| 2026-05-06 00:33 | -16.56876 | -48.12296 | 17484 ft | 432 kts | 354° |
| 2026-05-06 00:33 | -16.53901 | -48.12603 | 16758 ft | 426 kts | 354° |
| 2026-05-06 00:33 | -16.50970 | -48.12902 | 16066 ft | 420 kts | 354° |
| 2026-05-06 00:34 | -16.48084 | -48.13198 | 15373 ft | 414 kts | 354° |
| 2026-05-06 00:34 | -16.45242 | -48.13491 | 14678 ft | 408 kts | 354° |
| 2026-05-06 00:34 | -16.42438 | -48.13782 | 13998 ft | 402 kts | 354° |
| 2026-05-06 00:34 | -16.39682 | -48.14069 | 13219 ft | 396 kts | 355° |
| 2026-05-06 00:35 | -16.36958 | -48.14353 | 12432 ft | 390 kts | 355° |
| 2026-05-06 00:35 | -16.34279 | -48.14633 | 11677 ft | 383 kts | 355° |
| 2026-05-06 00:35 | -16.31636 | -48.14910 | 10992 ft | 381 kts | 356° |
| 2026-05-06 00:35 | -16.29025 | -48.15185 | 10671 ft | 370 kts | 356° |
| 2026-05-06 00:36 | -16.26555 | -48.15443 | 10557 ft | 354 kts | 356° |
| 2026-05-06 00:36 | -16.24152 | -48.15690 | 10442 ft | 340 kts | 356° |
| 2026-05-06 00:36 | -16.21842 | -48.15927 | 10322 ft | 326 kts | 356° |
| 2026-05-06 00:36 | -16.19646 | -48.16157 | 10207 ft | 308 kts | 356° |
| 2026-05-06 00:37 | -16.17561 | -48.16377 | 9941 ft | 297 kts | 356° |
| 2026-05-06 00:37 | -16.15521 | -48.16592 | 9588 ft | 294 kts | 357° |
| 2026-05-06 00:37 | -16.13476 | -48.16804 | 9231 ft | 295 kts | 357° |
| 2026-05-06 00:37 | -16.11441 | -48.17015 | 8890 ft | 296 kts | 357° |
| 2026-05-06 00:38 | -16.09409 | -48.17226 | 8673 ft | 292 kts | 357° |
| 2026-05-06 00:38 | -16.07390 | -48.17437 | 8384 ft | 291 kts | 357° |
| 2026-05-06 00:38 | -16.05374 | -48.17648 | 8079 ft | 292 kts | 357° |
| 2026-05-06 00:38 | -16.03355 | -48.17858 | 7771 ft | 291 kts | 358° |
| 2026-05-06 00:39 | -16.01341 | -48.18066 | 7479 ft | 291 kts | 358° |
| 2026-05-06 00:39 | -15.99330 | -48.18270 | 7185 ft | 290 kts | 358° |
| 2026-05-06 00:39 | -15.97329 | -48.18449 | 6789 ft | 288 kts | 359° |
| 2026-05-06 00:39 | -15.95359 | -48.18376 | 6297 ft | 280 kts | 17° |
| 2026-05-06 00:40 | -15.93574 | -48.17638 | 5685 ft | 276 kts | 37° |
| 2026-05-06 00:40 | -15.92187 | -48.16350 | 5468 ft | 259 kts | 55° |
| 2026-05-06 00:40 | -15.91252 | -48.14834 | 5444 ft | 240 kts | 63° |
| 2026-05-06 00:40 | -15.90427 | -48.13406 | 5453 ft | 220 kts | 62° |
| 2026-05-06 00:41 | -15.89670 | -48.12112 | 5457 ft | 200 kts | 63° |
| 2026-05-06 00:41 | -15.89178 | -48.10867 | 5476 ft | 178 kts | 83° |
| 2026-05-06 00:41 | -15.89069 | -48.09658 | 5414 ft | 158 kts | 88° |
| 2026-05-06 00:41 | -15.88996 | -48.08569 | 5375 ft | 147 kts | 89° |
| 2026-05-06 00:42 | -15.88929 | -48.07525 | 5317 ft | 143 kts | 89° |
| 2026-05-06 00:42 | -15.88864 | -48.06505 | 5264 ft | 140 kts | 88° |
| 2026-05-06 00:42 | -15.88801 | -48.05509 | 5210 ft | 140 kts | 89° |
| 2026-05-06 00:42 | -15.88737 | -48.04502 | 5201 ft | 140 kts | 89° |
| 2026-05-06 00:43 | -15.88673 | -48.03496 | 5198 ft | 140 kts | 89° |
| 2026-05-06 00:43 | -15.88608 | -48.02483 | 5103 ft | 140 kts | 89° |
| 2026-05-06 00:43 | -15.88544 | -48.01476 | 4966 ft | 140 kts | 89° |
| 2026-05-06 00:43 | -15.88480 | -48.00468 | 4799 ft | 140 kts | 88° |
| 2026-05-06 00:44 | -15.88416 | -47.99464 | 4621 ft | 139 kts | 88° |
| 2026-05-06 00:44 | -15.88352 | -47.98465 | 4424 ft | 139 kts | 88° |
| 2026-05-06 00:44 | -15.88288 | -47.97462 | 4247 ft | 139 kts | 88° |
| 2026-05-06 00:44 | -15.88224 | -47.96457 | 4046 ft | 139 kts | 87° |
| 2026-05-06 00:45 | -15.88164 | -47.95447 | 3822 ft | 140 kts | 88° |
| 2026-05-06 00:45 | -15.88100 | -47.94443 | 3631 ft | 139 kts | 87° |
| 2026-05-06 00:45 | -15.88034 | -47.93456 | 3507 ft | 129 kts | 87° |
| 2026-05-06 00:45 | -15.87978 | -47.92632 | 3479 ft | 92 kts | 86° |
| 2026-05-06 00:46 | -15.87949 | -47.92148 | 3474 ft | 46 kts | 86° |
| 2026-05-06 00:46 | -15.87919 | -47.91864 | 3467 ft | 26 kts | 65° |
| 2026-05-06 00:46 | -15.87823 | -47.91720 | 3463 ft | 21 kts | 54° |
| 2026-05-06 00:46 | -15.87759 | -47.91626 | 3461 ft | 22 kts | 57° |
| 2026-05-06 00:47 | -15.87655 | -47.91552 | 3463 ft | 18 kts | 356° |
| 2026-05-06 00:47 | -15.87511 | -47.91563 | 3469 ft | 14 kts | 358° |
| 2026-05-06 00:47 | -15.87450 | -47.91565 | 3470 ft | 12 kts | 356° |
| 2026-05-06 00:47 | -15.87364 | -47.91569 | 3471 ft | 13 kts | 356° |
| 2026-05-06 00:48 | -15.87308 | -47.91615 | 3471 ft | 11 kts | 268° |
| 2026-05-06 00:48 | -15.87314 | -47.91694 | 3472 ft | 11 kts | 266° |
| 2026-05-06 00:48 | -15.87319 | -47.91768 | 3472 ft | 10 kts | 265° |
| 2026-05-06 00:48 | -15.87322 | -47.91831 | 3472 ft | 7 kts | 274° |
| 2026-05-06 00:49 | -15.87282 | -47.91845 | 3472 ft | 6 kts | 358° |
| 2026-05-06 00:49 | -15.87261 | -47.91846 | 3472 ft | 0 kts | 358° |